Time;durP1;ratioP1;P1;durP2;ratioP2;P2;SDS_P1;SDS_P2;PMS_P1;PMS_P2;Temp;Humidity;BMP_temperature;BMP_pressure;BME280_temperature;BME280_humidity;BME280_pressure;Samples;Min_cycle;Max_cycle;Signal;HPM_P1;HPM_P2
2023/02/26 03:00:22;;;;;;;9.70;9.00;;;0.30;99.90;;;;;;6103860;23;20393;31
2023/02/26 03:02:57;;;;;;;9.93;9.20;;;0.30;99.90;;;;;;4975312;28;20465;-79
2023/02/26 03:05:26;;;;;;;10.10;9.27;;;0.30;99.90;;;;;;4978822;28;20459;-78
2023/02/26 03:07:56;;;;;;;9.73;9.03;;;0.30;99.90;;;;;;4980000;28;20459;-80
2023/02/26 03:10:23;;;;;;;10.10;9.40;;;0.30;99.90;;;;;;4979837;28;20499;-79
2023/02/26 03:12:50;;;;;;;9.70;8.90;;;0.20;99.90;;;;;;4973967;28;20444;-80
2023/02/26 03:15:23;;;;;;;9.93;9.10;;;0.10;99.90;;;;;;4981960;28;20447;-78
2023/02/26 03:17:58;;;;;;;10.50;9.60;;;0.00;99.90;;;;;;4974891;28;21040;-79
2023/02/26 03:20:29;;;;;;;9.80;9.10;;;0.00;99.90;;;;;;4965980;28;20447;-78
2023/02/26 03:23:05;;;;;;;10.10;9.20;;;-0.20;99.90;;;;;;4957616;28;20519;-79
2023/02/26 03:25:40;;;;;;;10.77;9.87;;;-0.30;99.90;;;;;;4966868;28;20451;-79
2023/02/26 03:28:12;;;;;;;9.97;9.17;;;-0.30;99.90;;;;;;4976697;28;20484;-79
2023/02/26 03:30:42;;;;;;;10.03;9.23;;;-0.30;99.90;;;;;;4977521;28;20470;-79
2023/02/26 03:33:17;;;;;;;9.70;9.00;;;-0.30;99.90;;;;;;4966618;28;20459;-79
2023/02/26 03:35:49;;;;;;;9.77;9.00;;;-0.40;99.90;;;;;;4966120;28;20499;-79
2023/02/26 03:38:24;;;;;;;10.17;9.47;;;-0.50;99.90;;;;;;4970246;28;20470;-80
2023/02/26 03:40:57;;;;;;;10.00;9.27;;;-0.50;99.90;;;;;;4972521;28;20858;-80
2023/02/26 03:43:30;;;;;;;9.80;9.13;;;-0.60;99.90;;;;;;4968359;28;20901;-79
2023/02/26 03:46:02;;;;;;;10.00;9.30;;;-0.60;99.90;;;;;;4976589;28;20466;-78
2023/02/26 03:48:31;;;;;;;9.43;8.70;;;-0.70;99.90;;;;;;4974268;28;20450;-78
2023/02/26 03:51:03;;;;;;;9.87;8.93;;;-0.80;99.90;;;;;;4972892;28;20501;-78
2023/02/26 03:54:09;;;;;;;10.43;9.50;;;-0.70;99.90;;;;;;4929989;29;20458;-78
2023/02/26 03:56:43;;;;;;;10.27;9.10;;;-0.80;99.90;;;;;;4964749;28;20465;-79
2023/02/26 03:59:19;;;;;;;9.73;8.80;;;-0.80;99.90;;;;;;4978666;28;20442;-79
2023/02/26 04:01:51;;;;;;;9.33;8.63;;;-0.80;99.90;;;;;;4973700;28;20528;-79
2023/02/26 04:04:25;;;;;;;9.73;8.93;;;-0.90;99.90;;;;;;4970560;28;20444;-79
2023/02/26 04:06:53;;;;;;;9.90;9.13;;;-0.90;99.90;;;;;;4976453;28;20452;-79
2023/02/26 04:09:21;;;;;;;9.67;9.00;;;-0.90;99.90;;;;;;4969028;28;20490;-79
2023/02/26 04:11:50;;;;;;;9.87;9.07;;;-1.00;99.90;;;;;;4967655;28;20459;-80
2023/02/26 04:14:17;;;;;;;9.70;9.00;;;-1.00;99.90;;;;;;4975512;28;20465;-79
2023/02/26 04:16:45;;;;;;;9.87;9.03;;;-1.10;99.90;;;;;;4963797;28;20468;-79
2023/02/26 04:19:13;;;;;;;9.97;9.17;;;-1.00;99.90;;;;;;4980694;28;20447;-80
2023/02/26 04:21:41;;;;;;;10.57;9.63;;;-1.00;99.90;;;;;;4974235;28;20516;-83
2023/02/26 04:24:08;;;;;;;10.30;9.47;;;-1.00;99.90;;;;;;4958954;28;20494;-82
2023/02/26 04:26:36;;;;;;;9.70;9.00;;;-1.20;99.90;;;;;;4979387;28;20461;-83
2023/02/26 04:29:03;;;;;;;9.97;9.27;;;-1.30;99.90;;;;;;4969153;28;20515;-84
2023/02/26 04:31:30;;;;;;;10.03;9.23;;;-1.30;99.90;;;;;;4973917;28;20540;-82
2023/02/26 04:33:57;;;;;;;10.57;9.57;;;-1.30;99.90;;;;;;4959603;28;20455;-82
2023/02/26 04:36:23;;;;;;;10.50;9.63;;;-1.30;99.90;;;;;;4958797;28;20450;-83
2023/02/26 04:38:52;;;;;;;10.03;9.23;;;-1.30;99.90;;;;;;4949947;28;20459;-85
2023/02/26 04:41:19;;;;;;;10.40;9.60;;;-1.30;99.90;;;;;;4955007;28;21070;-84
2023/02/26 04:43:48;;;;;;;10.53;9.63;;;-1.30;99.90;;;;;;4966315;28;20458;-82
2023/02/26 04:46:31;;;;;;;10.47;9.57;;;-1.20;99.90;;;;;;4954094;28;20521;-86
2023/02/26 04:48:58;;;;;;;10.70;9.73;;;-1.10;99.90;;;;;;4960468;28;20454;-77
2023/02/26 04:51:25;;;;;;;12.87;9.50;;;-1.10;99.90;;;;;;4972408;28;20912;-78
2023/02/26 04:53:54;;;;;;;10.73;9.83;;;-1.10;99.90;;;;;;4965137;28;20450;-78
2023/02/26 04:56:21;;;;;;;10.27;9.57;;;-1.00;99.90;;;;;;4971130;28;20442;-78
2023/02/26 04:58:47;;;;;;;9.73;9.03;;;-1.00;99.90;;;;;;4970709;28;20513;-78
2023/02/26 05:01:19;;;;;;;10.17;9.47;;;-1.00;99.90;;;;;;4976709;28;20891;-79
2023/02/26 05:03:48;;;;;;;9.97;9.17;;;-1.00;99.90;;;;;;4972537;28;20445;-79
2023/02/26 05:06:15;;;;;;;9.87;9.03;;;-1.00;99.90;;;;;;4972251;28;20451;-78
2023/02/26 05:08:42;;;;;;;9.47;8.77;;;-1.10;99.90;;;;;;4970492;28;20453;-78
2023/02/26 05:11:11;;;;;;;9.93;9.10;;;-1.10;99.90;;;;;;4972308;28;20477;-77
2023/02/26 05:13:37;;;;;;;10.30;9.60;;;-1.10;99.90;;;;;;4974543;28;20520;-79
2023/02/26 05:16:06;;;;;;;12.47;10.47;;;-1.00;99.90;;;;;;4969010;28;20460;-80
2023/02/26 05:18:32;;;;;;;10.33;9.50;;;-1.00;99.90;;;;;;4976215;28;20453;-78
2023/02/26 05:21:00;;;;;;;9.93;9.13;;;-0.90;99.90;;;;;;4975259;28;20469;-80
2023/02/26 05:23:27;;;;;;;10.13;9.20;;;-0.90;99.90;;;;;;4969337;28;20455;-79
2023/02/26 05:25:56;;;;;;;10.23;9.47;;;-0.80;99.90;;;;;;4977518;28;20455;-80
2023/02/26 05:28:24;;;;;;;9.83;8.83;;;-0.90;99.90;;;;;;4977454;28;20452;-79
2023/02/26 05:30:52;;;;;;;10.07;9.30;;;-0.90;99.90;;;;;;4972422;28;20481;-79
2023/02/26 05:33:19;;;;;;;10.00;9.30;;;-0.90;99.90;;;;;;4969851;28;20489;-79
2023/02/26 05:35:47;;;;;;;10.33;9.53;;;-0.90;99.90;;;;;;4977330;28;20455;-80
2023/02/26 05:38:13;;;;;;;10.73;9.73;;;-0.90;99.90;;;;;;4967550;28;20478;-79
2023/02/26 05:40:40;;;;;;;10.03;9.23;;;-0.90;99.90;;;;;;4972313;28;20450;-79
2023/02/26 05:43:08;;;;;;;10.20;9.40;;;-0.90;99.90;;;;;;4974008;28;20492;-78
2023/02/26 05:45:36;;;;;;;10.43;9.53;;;-0.90;99.90;;;;;;4976681;28;20541;-79
2023/02/26 05:48:03;;;;;;;10.73;9.67;;;-1.00;99.90;;;;;;4963306;28;20453;-77
2023/02/26 05:50:30;;;;;;;9.77;8.97;;;-1.10;99.90;;;;;;4967256;28;20477;-78
2023/02/26 05:52:57;;;;;;;10.13;9.37;;;-1.10;99.90;;;;;;4973821;28;20908;-80
2023/02/26 05:55:24;;;;;;;10.67;9.87;;;-1.00;99.90;;;;;;4979711;28;20466;-80
2023/02/26 05:57:51;;;;;;;10.33;9.40;;;-1.00;99.90;;;;;;4974123;28;20477;-78
2023/02/26 06:00:19;;;;;;;11.17;10.17;;;-1.10;99.90;;;;;;4973224;28;20449;-80
2023/02/26 06:02:47;;;;;;;10.13;9.40;;;-1.10;99.90;;;;;;4962280;28;20473;-79
2023/02/26 06:05:14;;;;;;;10.27;9.37;;;-1.10;99.90;;;;;;4978931;28;20461;-80
2023/02/26 06:07:40;;;;;;;11.07;10.17;;;-1.10;99.90;;;;;;4973090;28;20980;-80
2023/02/26 06:10:08;;;;;;;10.70;9.90;;;-1.10;99.90;;;;;;4975680;28;20479;-80
2023/02/26 06:12:36;;;;;;;10.30;9.60;;;-1.10;99.90;;;;;;4978197;28;20466;-79
2023/02/26 06:15:03;;;;;;;10.70;9.83;;;-1.10;99.90;;;;;;4971033;28;20504;-79
2023/02/26 06:17:30;;;;;;;10.63;9.87;;;-1.00;99.90;;;;;;4980703;28;20442;-80
2023/02/26 06:19:58;;;;;;;10.87;9.97;;;-1.00;99.90;;;;;;4975982;28;20450;-78
2023/02/26 06:22:25;;;;;;;11.13;10.13;;;-1.00;99.90;;;;;;4968786;28;20478;-82
2023/02/26 06:24:53;;;;;;;10.30;9.30;;;-1.10;99.90;;;;;;4957750;28;20467;-86
2023/02/26 06:27:20;;;;;;;10.63;9.73;;;-1.00;99.90;;;;;;4965845;28;20478;-82
2023/02/26 06:29:47;;;;;;;10.50;9.70;;;-1.00;99.90;;;;;;4967931;28;20524;-83
2023/02/26 06:32:14;;;;;;;10.30;9.50;;;-1.00;99.90;;;;;;4968183;28;20477;-84
2023/02/26 06:34:41;;;;;;;10.50;9.70;;;-1.00;99.90;;;;;;4973838;28;20438;-82
2023/02/26 06:37:09;;;;;;;10.83;9.97;;;-0.90;99.90;;;;;;4965457;28;20450;-84
2023/02/26 06:39:36;;;;;;;11.20;10.40;;;-0.80;99.90;;;;;;4962091;28;20489;-82
2023/02/26 06:42:03;;;;;;;10.93;10.10;;;-0.80;99.90;;;;;;4962432;28;20543;-80
2023/02/26 06:44:30;;;;;;;11.00;10.10;;;-0.70;99.90;;;;;;4968014;28;20458;-83
2023/02/26 06:46:57;;;;;;;10.80;9.90;;;-0.70;99.90;;;;;;4945097;28;20515;-82
2023/02/26 06:49:24;;;;;;;11.20;10.30;;;-0.70;99.90;;;;;;4946479;28;20468;-82
2023/02/26 06:51:51;;;;;;;10.87;9.97;;;-0.70;99.90;;;;;;4949422;28;20480;-83
2023/02/26 06:54:19;;;;;;;11.30;10.47;;;-0.80;99.90;;;;;;4960410;28;20448;-83
2023/02/26 06:56:46;;;;;;;10.97;10.17;;;-0.80;99.90;;;;;;4959212;28;20518;-80
2023/02/26 06:59:14;;;;;;;10.93;10.13;;;-0.80;99.90;;;;;;4965964;28;20451;-82
2023/02/26 07:01:41;;;;;;;10.77;9.77;;;-0.70;99.90;;;;;;4961695;28;20463;-78
2023/02/26 07:04:08;;;;;;;10.90;10.20;;;-0.60;99.90;;;;;;4960976;28;20931;-79
2023/02/26 07:06:34;;;;;;;11.37;10.50;;;-0.50;99.90;;;;;;4961263;28;20459;-80
2023/02/26 07:09:01;;;;;;;10.73;9.93;;;-0.40;99.90;;;;;;4954219;28;20454;-85
2023/02/26 07:11:29;;;;;;;11.07;10.27;;;-0.40;99.90;;;;;;4953883;28;20486;-86
2023/02/26 07:13:56;;;;;;;11.43;10.57;;;-0.40;99.90;;;;;;4951798;28;21020;-86
2023/02/26 07:16:23;;;;;;;11.80;10.77;;;-0.30;99.90;;;;;;4954870;28;20471;-84
2023/02/26 07:18:50;;;;;;;11.60;10.50;;;-0.30;99.90;;;;;;4949959;28;20898;-85
2023/02/26 07:21:16;;;;;;;11.40;10.40;;;-0.40;99.90;;;;;;4951494;28;20558;-86
2023/02/26 07:23:43;;;;;;;11.87;10.60;;;-0.40;99.90;;;;;;4954033;28;20945;-86
2023/02/26 07:26:10;;;;;;;11.33;10.43;;;-0.30;99.90;;;;;;4950699;28;20456;-85
2023/02/26 07:28:38;;;;;;;11.33;10.50;;;0.00;99.90;;;;;;4954630;28;20500;-86
2023/02/26 07:31:05;;;;;;;11.30;10.60;;;0.10;99.90;;;;;;4952274;28;21004;-84
2023/02/26 07:33:33;;;;;;;11.30;10.40;;;0.10;99.90;;;;;;4954839;28;20456;-80
2023/02/26 07:36:00;;;;;;;11.47;10.57;;;0.00;99.90;;;;;;4952582;28;20445;-83
2023/02/26 07:38:27;;;;;;;11.20;10.40;;;0.00;99.90;;;;;;4950859;28;20436;-85
2023/02/26 07:40:55;;;;;;;11.73;10.63;;;0.10;99.90;;;;;;4960997;28;20467;-86
2023/02/26 07:43:22;;;;;;;11.87;10.87;;;0.00;99.90;;;;;;4963313;28;20454;-86
2023/02/26 07:45:51;;;;;;;11.50;10.60;;;0.00;99.90;;;;;;4952526;28;20529;-86
2023/02/26 07:48:19;;;;;;;11.47;10.57;;;0.10;99.90;;;;;;4948866;28;20503;-83
2023/02/26 07:50:47;;;;;;;11.93;10.57;;;0.00;99.90;;;;;;4952672;28;20492;-86
2023/02/26 07:53:14;;;;;;;10.60;9.73;;;-0.20;99.90;;;;;;4954014;28;20984;-87
2023/02/26 07:55:41;;;;;;;10.97;9.97;;;-0.20;99.90;;;;;;4957000;28;20464;-81
2023/02/26 07:58:07;;;;;;;12.33;10.87;;;-0.30;99.90;;;;;;4963306;28;20775;-82
2023/02/26 08:00:34;;;;;;;10.90;10.00;;;-0.20;99.90;;;;;;4958666;28;20449;-81
2023/02/26 08:03:03;;;;;;;10.37;9.67;;;-0.10;99.90;;;;;;4961933;28;20505;-80
2023/02/26 08:05:30;;;;;;;10.77;9.93;;;0.00;99.90;;;;;;4959181;28;20457;-80
2023/02/26 08:07:56;;;;;;;10.70;9.83;;;0.10;99.90;;;;;;4959958;28;20453;-80
2023/02/26 08:10:23;;;;;;;10.87;10.07;;;0.20;99.90;;;;;;4959816;28;20486;-79
2023/02/26 08:12:50;;;;;;;10.63;9.80;;;0.20;99.90;;;;;;4959396;28;20508;-79
2023/02/26 08:15:17;;;;;;;10.57;9.77;;;0.20;99.90;;;;;;4947282;28;20454;-79
2023/02/26 08:17:44;;;;;;;11.17;10.30;;;0.20;99.90;;;;;;4960588;28;20565;-80
2023/02/26 08:20:14;;;;;;;10.97;10.07;;;0.20;99.90;;;;;;4955354;28;20487;-80
2023/02/26 08:22:41;;;;;;;10.70;9.90;;;0.30;99.90;;;;;;4961579;28;20496;-80
2023/02/26 08:25:08;;;;;;;10.50;9.70;;;0.30;99.90;;;;;;4973056;28;20637;-82
2023/02/26 08:27:35;;;;;;;11.80;10.00;;;0.40;99.90;;;;;;4975535;28;20458;-80
2023/02/26 08:30:02;;;;;;;11.40;10.50;;;0.40;99.90;;;;;;4970354;28;20456;-83
2023/02/26 08:32:29;;;;;;;10.67;9.70;;;0.40;99.90;;;;;;4972833;28;20516;-83
2023/02/26 08:34:56;;;;;;;11.10;10.30;;;0.30;99.90;;;;;;4959202;28;20464;-82
2023/02/26 08:37:24;;;;;;;11.63;10.63;;;0.00;99.90;;;;;;4962448;28;20440;-80
2023/02/26 08:39:51;;;;;;;11.00;10.10;;;-0.10;99.90;;;;;;4961513;28;20465;-82
2023/02/26 08:42:19;;;;;;;13.87;11.07;;;0.00;99.90;;;;;;4968301;28;20463;-82
2023/02/26 08:44:46;;;;;;;11.50;10.50;;;0.00;99.90;;;;;;4976487;28;20952;-80
2023/02/26 08:47:13;;;;;;;11.47;10.30;;;-0.10;99.90;;;;;;4958300;28;20451;-84
2023/02/26 08:49:40;;;;;;;10.87;9.97;;;-0.10;99.90;;;;;;4962553;28;20469;-84
2023/02/26 08:52:07;;;;;;;10.97;9.73;;;0.00;99.90;;;;;;4951009;28;20484;-77
2023/02/26 08:54:35;;;;;;;10.60;9.60;;;0.00;99.90;;;;;;4944556;28;20870;-81
2023/02/26 08:57:02;;;;;;;10.60;9.83;;;-0.10;99.90;;;;;;4955314;28;20440;-80
2023/02/26 08:59:32;;;;;;;10.43;9.73;;;-0.10;99.90;;;;;;4958029;28;20510;-82
2023/02/26 09:01:59;;;;;;;12.93;9.93;;;0.10;99.90;;;;;;4950183;28;20488;-85
2023/02/26 09:04:27;;;;;;;10.30;9.60;;;0.10;99.90;;;;;;4973092;28;20458;-85
2023/02/26 09:06:54;;;;;;;10.80;10.00;;;0.10;99.90;;;;;;4974097;28;20815;-86
2023/02/26 09:09:21;;;;;;;10.13;9.40;;;0.00;99.90;;;;;;4968095;28;20479;-86
2023/02/26 09:11:50;;;;;;;10.03;9.33;;;-0.10;99.90;;;;;;4972536;28;20495;-88
2023/02/26 09:14:17;;;;;;;10.77;9.80;;;-0.30;99.90;;;;;;4975739;28;20516;-87
2023/02/26 09:16:43;;;;;;;11.00;10.00;;;-0.20;99.90;;;;;;4960980;28;20571;-86
2023/02/26 09:19:19;;;;;;;10.70;9.90;;;0.00;99.90;;;;;;4974075;28;20451;-83
2023/02/26 09:21:46;;;;;;;10.70;10.00;;;0.20;99.90;;;;;;4957586;28;20696;-85
2023/02/26 09:24:13;;;;;;;10.47;9.47;;;0.50;99.90;;;;;;4955857;28;20460;-81
2023/02/26 09:26:40;;;;;;;10.33;9.53;;;0.70;99.90;;;;;;4952940;28;20468;-81
2023/02/26 09:29:10;;;;;;;10.47;9.60;;;0.60;99.90;;;;;;4966072;28;20481;-80
2023/02/26 09:31:37;;;;;;;10.07;9.40;;;0.50;99.90;;;;;;4949115;28;20596;-80
2023/02/26 09:34:04;;;;;;;10.40;9.70;;;0.40;99.90;;;;;;4957605;28;20451;-79
2023/02/26 09:36:31;;;;;;;9.70;9.10;;;0.40;99.90;;;;;;4954301;28;20537;-80
2023/02/26 09:38:58;;;;;;;11.20;10.20;;;0.30;99.90;;;;;;4963300;28;20496;-79
2023/02/26 09:41:29;;;;;;;10.27;9.67;;;0.40;99.90;;;;;;4951811;28;20470;-81
2023/02/26 09:44:13;;;;;;;10.30;9.53;;;0.40;99.90;;;;;;4960778;28;20450;-81
2023/02/26 09:46:47;;;;;;;10.00;9.30;;;0.50;99.90;;;;;;4949704;28;20518;-79
2023/02/26 09:49:22;;;;;;;10.00;9.40;;;0.50;99.90;;;;;;4958381;28;20261;-81
2023/02/26 09:51:54;;;;;;;10.30;9.60;;;0.60;99.90;;;;;;4954226;28;20481;-81
2023/02/26 09:54:24;;;;;;;9.50;8.90;;;0.60;99.90;;;;;;4954089;28;20460;-80
2023/02/26 09:56:53;;;;;;;9.87;9.17;;;0.60;99.90;;;;;;4956344;28;20462;-81
2023/02/26 09:59:21;;;;;;;10.23;9.53;;;0.40;99.90;;;;;;4954702;28;20809;-80
2023/02/26 10:01:56;;;;;;;10.83;9.93;;;0.30;99.90;;;;;;4957521;28;20473;-82
2023/02/26 10:04:39;;;;;;;10.40;9.60;;;0.30;99.90;;;;;;4962503;28;20473;-81
2023/02/26 10:07:16;;;;;;;10.10;9.30;;;0.50;99.90;;;;;;4967985;28;20464;-87
2023/02/26 10:10:02;;;;;;;10.07;9.23;;;0.70;99.90;;;;;;4958132;28;20988;-84
2023/02/26 10:12:33;;;;;;;10.67;9.90;;;0.70;99.90;;;;;;4954498;28;20493;-85
2023/02/26 10:15:06;;;;;;;9.93;9.23;;;0.80;99.90;;;;;;4959669;28;20457;-86
2023/02/26 10:17:40;;;;;;;10.40;9.50;;;1.00;99.90;;;;;;4951682;28;20498;-86
2023/02/26 10:20:15;;;;;;;10.03;9.40;;;1.20;99.90;;;;;;4943526;28;20528;-86
2023/02/26 10:22:46;;;;;;;9.70;9.10;;;1.40;99.90;;;;;;4953971;28;20470;-86
2023/02/26 10:25:17;;;;;;;9.77;9.17;;;1.40;99.90;;;;;;4949782;28;20751;-85
2023/02/26 10:27:53;;;;;;;9.50;8.90;;;1.90;99.90;;;;;;4956367;28;20446;-86
2023/02/26 10:30:32;;;;;;;9.50;8.80;;;2.10;99.90;;;;;;4954075;28;20728;-86
2023/02/26 10:33:06;;;;;;;9.30;8.80;;;2.00;99.90;;;;;;4956087;28;20214;-87
2023/02/26 10:35:50;;;;;;;9.60;8.80;;;2.00;99.90;;;;;;4961997;28;20205;-84
2023/02/26 10:38:22;;;;;;;9.70;9.10;;;1.90;99.90;;;;;;4949697;28;20261;-85
2023/02/26 10:40:52;;;;;;;10.53;9.83;;;1.90;99.90;;;;;;4956272;28;20226;-85
2023/02/26 10:43:22;;;;;;;10.50;9.70;;;2.00;99.90;;;;;;4957928;28;20262;-85
2023/02/26 10:46:09;;;;;;;9.90;9.20;;;2.00;99.90;;;;;;4954169;28;20234;-84
2023/02/26 10:48:54;;;;;;;9.97;9.37;;;2.10;99.90;;;;;;4960604;28;20205;-86
2023/02/26 10:51:24;;;;;;;9.80;8.90;;;2.10;99.90;;;;;;4953140;28;20218;-85
2023/02/26 10:53:55;;;;;;;9.57;8.80;;;2.10;99.90;;;;;;4955969;28;20677;-88
2023/02/26 10:56:26;;;;;;;9.43;8.87;;;1.90;99.90;;;;;;4975787;28;20209;-87
2023/02/26 10:58:54;;;;;;;9.27;8.67;;;1.70;99.90;;;;;;4977251;28;20464;-85
2023/02/26 11:01:24;;;;;;;9.47;8.87;;;1.50;99.90;;;;;;4969593;28;20218;-85
2023/02/26 11:03:56;;;;;;;10.00;9.30;;;1.10;99.90;;;;;;4955249;28;20203;-82
2023/02/26 11:06:27;;;;;;;9.33;8.63;;;1.00;99.90;;;;;;4970766;28;20460;-80
2023/02/26 11:08:57;;;;;;;9.80;9.07;;;0.90;99.90;;;;;;4958286;28;20210;-81
2023/02/26 11:11:41;;;;;;;10.13;9.43;;;0.80;99.90;;;;;;4960163;28;20245;-80
2023/02/26 11:14:08;;;;;;;10.33;9.60;;;0.80;99.90;;;;;;4949271;28;20520;-80
2023/02/26 11:16:43;;;;;;;10.10;9.40;;;0.80;99.90;;;;;;4960240;28;20458;-81
2023/02/26 11:19:12;;;;;;;10.43;9.73;;;1.00;99.90;;;;;;4959393;28;21121;-81
2023/02/26 11:21:40;;;;;;;9.83;9.03;;;1.20;99.90;;;;;;4955117;28;20474;-80
2023/02/26 11:24:12;;;;;;;10.57;9.67;;;1.50;99.90;;;;;;4957389;28;20447;-82
2023/02/26 11:26:42;;;;;;;10.07;9.37;;;1.70;99.90;;;;;;4956448;28;20223;-80
2023/02/26 11:29:15;;;;;;;10.83;9.93;;;1.50;99.90;;;;;;4950450;28;21031;-80
2023/02/26 11:31:43;;;;;;;9.57;8.90;;;1.50;99.90;;;;;;4957556;28;20278;-79
2023/02/26 11:34:12;;;;;;;9.50;8.80;;;1.60;99.90;;;;;;4953887;28;20235;-85
2023/02/26 11:36:41;;;;;;;10.20;9.40;;;1.70;99.90;;;;;;4960978;28;20454;-81
2023/02/26 11:39:15;;;;;;;9.43;8.83;;;1.90;99.90;;;;;;4957763;28;20210;-78
2023/02/26 11:41:45;;;;;;;9.60;9.00;;;2.10;99.90;;;;;;4964141;28;20232;-80
2023/02/26 11:44:17;;;;;;;9.63;8.93;;;2.10;99.90;;;;;;4960434;28;20209;-81
2023/02/26 11:46:47;;;;;;;9.60;9.00;;;1.90;99.90;;;;;;4966478;28;20208;-79
2023/02/26 11:49:18;;;;;;;9.60;9.00;;;1.80;99.90;;;;;;4963184;28;20187;-80
2023/02/26 11:51:47;;;;;;;9.60;9.00;;;1.70;99.90;;;;;;4968524;28;20229;-81
2023/02/26 11:54:23;;;;;;;9.80;9.20;;;1.60;99.90;;;;;;4963097;28;20210;-80
2023/02/26 11:56:50;;;;;;;9.87;9.07;;;1.60;99.90;;;;;;4965117;28;20206;-80
2023/02/26 11:59:19;;;;;;;9.50;8.90;;;1.50;99.90;;;;;;4960322;28;20210;-82
2023/02/26 12:01:48;;;;;;;9.20;8.60;;;1.60;99.90;;;;;;4958855;28;20233;-82
2023/02/26 12:04:22;;;;;;;9.53;8.93;;;1.40;99.90;;;;;;4958746;28;20194;-79
2023/02/26 12:06:50;;;;;;;9.53;8.73;;;1.20;99.90;;;;;;4963388;28;20202;-81
2023/02/26 12:09:18;;;;;;;9.40;8.80;;;1.30;99.90;;;;;;4966243;28;20449;-80
2023/02/26 12:12:09;;;;;;;9.43;8.83;;;1.20;99.90;;;;;;4951590;28;20487;-82
2023/02/26 12:15:02;;;;;;;9.73;9.13;;;1.30;99.90;;;;;;4948070;28;20459;-80
2023/02/26 12:17:53;;;;;;;9.10;8.60;;;1.30;99.90;;;;;;4955660;28;20442;-79
2023/02/26 12:20:26;;;;;;;9.73;9.03;;;1.30;99.90;;;;;;4955414;28;20485;-80
2023/02/26 12:23:13;;;;;;;9.87;9.27;;;1.30;99.90;;;;;;4959716;28;20442;-79
2023/02/26 12:26:04;;;;;;;9.70;9.10;;;1.50;99.90;;;;;;4957077;28;20439;-79
2023/02/26 12:28:47;;;;;;;9.90;9.30;;;1.40;99.90;;;;;;4953367;28;20544;-80
2023/02/26 12:31:32;;;;;;;9.27;8.70;;;1.50;99.90;;;;;;4963947;28;20867;-82
2023/02/26 12:34:15;;;;;;;9.50;8.80;;;1.60;99.90;;;;;;4958899;28;20490;-81
2023/02/26 12:36:54;;;;;;;9.53;8.93;;;1.60;99.90;;;;;;4962880;28;20265;-81
2023/02/26 12:39:37;;;;;;;9.60;9.00;;;1.70;99.90;;;;;;4952337;28;20457;-80
2023/02/26 12:42:16;;;;;;;9.20;8.70;;;1.90;99.90;;;;;;4961338;28;20885;-79
2023/02/26 12:44:56;;;;;;;9.30;8.80;;;2.10;99.90;;;;;;4958528;28;20462;-79
2023/02/26 12:47:34;;;;;;;10.10;9.40;;;2.00;99.90;;;;;;4957078;28;20199;-83
2023/02/26 12:50:22;;;;;;;10.10;9.40;;;1.90;99.90;;;;;;4960028;28;20206;-81
2023/02/26 12:53:26;;;;;;;11.00;10.03;;;1.60;99.90;;;;;;4958252;28;20255;-80
2023/02/26 12:56:15;;;;;;;10.07;9.20;;;1.50;99.90;;;;;;4957593;28;20210;-81
2023/02/26 12:58:54;;;;;;;9.63;9.03;;;1.40;99.90;;;;;;4967902;28;20490;-81
2023/02/26 13:01:48;;;;;;;9.70;9.00;;;1.40;99.90;;;;;;4962990;28;20252;-80
2023/02/26 13:04:46;;;;;;;9.33;8.73;;;1.50;99.90;;;;;;4960097;28;20202;-82
2023/02/26 13:07:48;;;;;;;9.57;8.97;;;1.60;99.90;;;;;;4960042;28;20456;-83
2023/02/26 13:10:26;;;;;;;9.37;8.77;;;1.80;99.90;;;;;;4945917;28;20198;-80
2023/02/26 13:13:05;;;;;;;9.60;9.00;;;1.80;99.90;;;;;;4967168;28;21034;-78
2023/02/26 13:15:53;;;;;;;9.40;8.80;;;1.70;99.90;;;;;;4972444;28;20452;-80
2023/02/26 13:18:28;;;;;;;9.17;8.47;;;1.80;99.90;;;;;;4956303;28;20446;-81
2023/02/26 13:21:00;;;;;;;9.50;8.90;;;1.80;99.90;;;;;;4972418;28;20658;-80
2023/02/26 13:23:35;;;;;;;9.47;8.80;;;1.80;99.90;;;;;;4969274;28;20959;-82
2023/02/26 13:26:06;;;;;;;9.40;8.70;;;1.90;99.90;;;;;;4971593;28;20201;-81
2023/02/26 13:28:39;;;;;;;9.47;8.87;;;2.00;99.90;;;;;;4974024;28;20750;-84
2023/02/26 13:31:09;;;;;;;9.13;8.63;;;2.10;99.90;;;;;;4968299;28;20293;-82
2023/02/26 13:33:37;;;;;;;9.40;8.80;;;2.20;99.90;;;;;;4974396;28;20226;-82
2023/02/26 13:36:07;;;;;;;9.77;9.07;;;2.20;99.90;;;;;;4967186;28;20207;-82
2023/02/26 13:38:44;;;;;;;9.33;8.73;;;2.20;99.90;;;;;;4979631;28;20206;-81
2023/02/26 13:41:16;;;;;;;9.07;8.57;;;2.30;99.90;;;;;;4980591;28;20214;-81
2023/02/26 13:43:59;;;;;;;9.40;8.80;;;2.40;99.90;;;;;;4973811;28;20205;-82
2023/02/26 13:46:39;;;;;;;9.07;8.40;;;2.70;99.90;;;;;;4967519;28;20269;-82
2023/02/26 13:49:16;;;;;;;9.17;8.40;;;2.70;99.90;;;;;;4979796;28;20202;-81
2023/02/26 13:51:45;;;;;;;8.57;8.07;;;2.60;99.90;;;;;;4977748;28;20221;-82
2023/02/26 13:54:41;;;;;;;8.70;8.20;;;2.60;99.90;;;;;;4975044;28;20229;-83
2023/02/26 13:57:20;;;;;;;8.40;7.90;;;2.60;99.90;;;;;;4966373;28;20209;-84
2023/02/26 13:59:54;;;;;;;8.57;8.07;;;2.60;99.90;;;;;;4964318;28;20213;-80
2023/02/26 14:02:48;;;;;;;8.13;7.73;;;2.40;99.90;;;;;;4972558;28;20309;-86
2023/02/26 14:05:58;;;;;;;8.63;8.13;;;2.40;99.90;;;;;;4973139;28;20206;-83
2023/02/26 14:08:44;;;;;;;9.07;8.50;;;2.30;99.90;;;;;;4968241;28;20252;-85
2023/02/26 14:11:44;;;;;;;9.00;8.50;;;2.10;99.90;;;;;;4955563;28;20222;-86
2023/02/26 14:14:24;;;;;;;9.03;8.43;;;2.00;99.90;;;;;;4960417;28;20222;-86
2023/02/26 14:16:54;;;;;;;9.23;8.73;;;2.00;99.90;;;;;;4950081;28;20203;-81
2023/02/26 14:19:28;;;;;;;9.20;8.70;;;2.20;99.90;;;;;;4954973;28;20203;-81
2023/02/26 14:21:57;;;;;;;9.00;8.40;;;2.20;99.90;;;;;;4960797;28;20291;-81
2023/02/26 14:24:35;;;;;;;9.00;8.43;;;2.40;99.90;;;;;;4959440;28;20201;-82
2023/02/26 14:27:39;;;;;;;8.80;8.30;;;2.40;99.90;;;;;;4956217;28;20209;-81
2023/02/26 14:30:18;;;;;;;8.97;8.47;;;2.40;99.90;;;;;;4956679;28;20198;-81
2023/02/26 14:32:48;;;;;;;9.10;8.60;;;2.60;99.90;;;;;;4954569;28;20231;-80
2023/02/26 14:35:20;;;;;;;8.60;8.10;;;2.60;99.90;;;;;;4957038;28;20194;-81
2023/02/26 14:38:04;;;;;;;8.90;8.40;;;2.60;99.90;;;;;;4963798;28;20727;-80
2023/02/26 14:40:36;;;;;;;8.83;8.33;;;2.60;99.90;;;;;;4961046;28;20257;-81
2023/02/26 14:43:09;;;;;;;8.80;8.30;;;2.40;99.90;;;;;;4955623;28;20203;-81
2023/02/26 14:45:38;;;;;;;8.83;8.30;;;2.50;99.90;;;;;;4948776;28;20227;-82
2023/02/26 14:48:07;;;;;;;8.30;7.80;;;2.50;99.90;;;;;;4958299;28;20293;-80
2023/02/26 14:50:46;;;;;;;9.00;8.50;;;2.80;99.90;;;;;;4949771;28;20251;-81
2023/02/26 14:53:55;;;;;;;9.50;8.90;;;2.80;99.90;;;;;;4957722;28;20288;-82
2023/02/26 14:56:31;;;;;;;9.00;8.40;;;2.50;99.90;;;;;;4944354;28;20237;-80
2023/02/26 14:59:19;;;;;;;9.83;9.20;;;2.00;99.90;;;;;;4954843;28;20439;-78
2023/02/26 15:01:49;;;;;;;9.30;8.80;;;1.70;99.90;;;;;;4952231;28;20230;-86
2023/02/26 15:04:47;;;;;;;10.37;9.67;;;1.40;99.90;;;;;;4951804;28;20435;-80
2023/02/26 15:07:37;;;;;;;9.30;8.80;;;1.30;99.90;;;;;;4954660;28;20482;-79
2023/02/26 15:10:28;;;;;;;9.53;8.93;;;1.40;99.90;;;;;;4959076;28;20292;-80
2023/02/26 15:13:13;;;;;;;9.43;8.93;;;1.50;99.90;;;;;;4958827;28;20483;-80
2023/02/26 15:15:52;;;;;;;9.90;9.30;;;1.70;99.90;;;;;;4957052;28;20521;-80
2023/02/26 15:18:45;;;;;;;9.87;9.33;;;2.00;99.90;;;;;;4959339;28;20192;-80
2023/02/26 15:21:20;;;;;;;9.53;9.03;;;2.20;99.90;;;;;;4955315;28;20478;-82
2023/02/26 15:23:49;;;;;;;9.60;9.10;;;2.30;99.90;;;;;;4959381;28;20453;-80
2023/02/26 15:26:20;;;;;;;9.50;9.00;;;2.40;99.90;;;;;;4961788;28;20461;-79
2023/02/26 15:28:48;;;;;;;8.70;8.20;;;2.40;99.90;;;;;;4959276;28;20207;-80
2023/02/26 15:31:20;;;;;;;8.20;7.73;;;2.30;99.90;;;;;;4956792;28;20688;-80
2023/02/26 15:33:48;;;;;;;8.80;8.30;;;2.30;99.90;;;;;;4960418;28;20490;-80
2023/02/26 15:36:20;;;;;;;9.20;8.60;;;2.30;99.90;;;;;;4957698;28;20306;-82
2023/02/26 15:38:50;;;;;;;8.63;8.13;;;2.30;99.90;;;;;;4965994;28;20352;-83
2023/02/26 15:41:18;;;;;;;8.70;8.20;;;2.30;99.90;;;;;;4969508;28;20457;-81
2023/02/26 15:43:53;;;;;;;8.93;8.33;;;2.30;99.90;;;;;;4969734;28;20202;-84
2023/02/26 15:46:28;;;;;;;8.90;8.40;;;2.10;99.90;;;;;;4959609;28;20214;-82
2023/02/26 15:48:59;;;;;;;9.07;8.40;;;1.80;99.90;;;;;;4971468;28;20268;-81
2023/02/26 15:51:27;;;;;;;8.90;8.40;;;1.60;99.90;;;;;;4965759;28;20963;-83
2023/02/26 15:54:01;;;;;;;8.93;8.40;;;1.50;99.90;;;;;;4973581;28;20224;-87
2023/02/26 15:56:32;;;;;;;8.87;8.37;;;1.50;99.90;;;;;;4967259;28;20457;-88
2023/02/26 15:59:02;;;;;;;8.90;8.40;;;1.50;99.90;;;;;;4963609;28;20459;-88
2023/02/26 16:01:31;;;;;;;8.90;8.40;;;1.50;99.90;;;;;;4961773;28;20478;-81
2023/02/26 16:04:01;;;;;;;8.87;8.37;;;1.50;99.90;;;;;;4957804;28;20433;-81
2023/02/26 16:06:31;;;;;;;8.70;8.20;;;1.50;99.90;;;;;;4952765;28;20461;-82
2023/02/26 16:09:00;;;;;;;9.00;8.40;;;1.50;99.90;;;;;;4963519;28;20462;-81
2023/02/26 16:11:32;;;;;;;9.07;8.53;;;1.60;99.90;;;;;;4961764;29;20462;-80